createdAt,value
2018-04-22T00:01:32.533Z,21.30
2018-04-22T00:03:37.546Z,21.30
2018-04-22T00:05:42.515Z,21.20
2018-04-22T00:07:46.347Z,21.30
2018-04-22T00:09:50.500Z,21.20
2018-04-22T00:11:55.095Z,21.10
2018-04-22T00:13:58.993Z,21.10
2018-04-22T00:16:03.625Z,21.20
2018-04-22T00:18:07.432Z,21.10
2018-04-22T00:20:11.267Z,21.20
2018-04-22T00:22:15.217Z,21.10
2018-04-22T00:24:20.467Z,21.10
2018-04-22T00:26:25.132Z,21.10
2018-04-22T00:28:29.854Z,21.10
2018-04-22T00:30:34.018Z,21.10
2018-04-22T00:32:37.849Z,21.00
2018-04-22T00:34:41.874Z,21.10
2018-04-22T00:36:46.546Z,21.10
2018-04-22T00:38:51.265Z,21.00
2018-04-22T00:40:55.132Z,21.00
2018-04-22T00:42:59.989Z,21.10
2018-04-22T00:45:06.013Z,21.00
2018-04-22T00:47:09.814Z,21.10
2018-04-22T00:49:15.833Z,21.10
2018-04-22T00:51:19.697Z,21.10
2018-04-22T00:53:23.781Z,21.00
2018-04-22T00:55:28.661Z,21.10
2018-04-22T00:57:33.359Z,21.10
2018-04-22T00:59:37.186Z,21.10
2018-04-22T01:01:41.029Z,21.20
2018-04-22T01:03:44.877Z,21.20
2018-04-22T01:05:48.700Z,21.10
2018-04-22T01:07:52.798Z,21.00
2018-04-22T01:09:56.799Z,20.90
2018-04-22T01:12:00.644Z,20.90
2018-04-22T01:14:04.986Z,20.90
2018-04-22T01:16:08.857Z,20.90
2018-04-22T01:18:12.778Z,20.80
2018-04-22T01:20:17.111Z,20.80
2018-04-22T01:24:17.638Z,20.80
2018-04-22T01:26:21.766Z,20.80
2018-04-22T01:28:27.272Z,20.70
2018-04-22T01:30:31.056Z,20.70
2018-04-22T01:32:34.951Z,20.60
2018-04-22T01:34:38.768Z,20.60
2018-04-22T01:36:42.569Z,20.50
2018-04-22T01:38:46.778Z,20.50
2018-04-22T01:40:51.412Z,20.50
2018-04-22T01:42:55.177Z,20.50
2018-04-22T01:45:01.422Z,20.70
2018-04-22T01:47:06.048Z,20.70
2018-04-22T01:49:09.896Z,20.70
2018-04-22T01:51:14.039Z,20.70
2018-04-22T01:53:18.746Z,20.70
2018-04-22T01:55:23.448Z,20.80
2018-04-22T01:57:27.821Z,20.70
2018-04-22T01:59:31.633Z,20.70
2018-04-22T02:01:36.245Z,20.70
2018-04-22T02:03:40.396Z,20.60
2018-04-22T02:05:44.213Z,20.50
2018-04-22T02:07:48.079Z,20.50
2018-04-22T02:09:53.180Z,20.40
2018-04-22T02:11:57.041Z,20.30
2018-04-22T02:14:01.570Z,20.30
2018-04-22T02:16:05.824Z,20.20
2018-04-22T02:18:09.669Z,20.20
2018-04-22T02:20:14.215Z,20.20
2018-04-22T02:22:18.557Z,20.10
2018-04-22T02:24:22.393Z,20.00
2018-04-22T02:26:27.020Z,19.90
2018-04-22T02:28:32.881Z,19.90
2018-04-22T02:30:36.745Z,19.90
2018-04-22T02:32:40.674Z,20.00
2018-04-22T02:34:45.552Z,20.00
2018-04-22T02:36:49.409Z,20.00
2018-04-22T02:38:54.044Z,20.10
2018-04-22T02:41:00.676Z,20.10
2018-04-22T02:43:04.482Z,20.00
2018-04-22T02:45:08.309Z,20.00
2018-04-22T02:47:13.297Z,20.00
2018-04-22T02:49:17.134Z,20.00
2018-04-22T02:51:21.045Z,20.00
2018-04-22T02:53:25.676Z,20.20
2018-04-22T02:55:31.106Z,20.20
2018-04-22T02:57:34.984Z,20.20
2018-04-22T02:59:39.100Z,20.30
2018-04-22T03:01:43.393Z,20.30
2018-04-22T03:03:47.142Z,20.30
2018-04-22T03:05:53.048Z,20.00
2018-04-22T03:07:56.824Z,19.90
2018-04-22T03:10:00.682Z,19.90
2018-04-22T03:12:04.762Z,19.80
2018-04-22T03:14:08.534Z,19.50
2018-04-22T03:16:12.315Z,19.30
2018-04-22T03:18:17.430Z,19.10
2018-04-22T03:20:21.357Z,19.10
2018-04-22T03:22:25.972Z,18.80
2018-04-22T03:24:29.931Z,18.80
2018-04-22T03:26:33.875Z,18.80
2018-04-22T03:28:37.690Z,18.60
2018-04-22T03:30:45.812Z,18.40
2018-04-22T03:32:49.641Z,18.20
2018-04-22T03:34:53.775Z,18.10
2018-04-22T03:36:58.119Z,18.10
2018-04-22T03:39:02.110Z,18.10
2018-04-22T03:41:05.916Z,18.10
2018-04-22T03:43:09.715Z,18.00
2018-04-22T03:45:15.165Z,17.90
2018-04-22T03:47:19.013Z,17.90
2018-04-22T03:49:25.423Z,17.90
2018-04-22T03:51:29.244Z,17.80
2018-04-22T03:53:33.797Z,17.70
2018-04-22T03:55:39.238Z,17.70
2018-04-22T03:57:43.877Z,17.70
2018-04-22T03:59:47.751Z,17.80
2018-04-22T04:01:53.835Z,17.70
2018-04-22T04:03:58.418Z,17.70
2018-04-22T04:06:02.189Z,17.70
2018-04-22T04:08:06.041Z,17.60
2018-04-22T04:10:10.780Z,17.70
2018-04-22T04:12:14.668Z,17.60
2018-04-22T04:14:19.193Z,17.60
2018-04-22T04:16:23.744Z,17.60
2018-04-22T04:18:37.251Z,17.50
2018-04-22T04:20:52.980Z,17.50
2018-04-22T04:22:58.032Z,17.50
2018-04-22T04:27:15.648Z,17.50
2018-04-22T04:29:19.406Z,17.50
2018-04-22T04:31:24.415Z,17.30
2018-04-22T04:33:28.333Z,17.30
2018-04-22T04:35:32.157Z,17.20
2018-04-22T04:37:36.505Z,17.20
2018-04-22T04:39:40.340Z,17.40
2018-04-22T04:41:44.960Z,17.30
2018-04-22T04:43:48.807Z,17.40
2018-04-22T04:45:52.626Z,17.40
2018-04-22T04:47:56.521Z,17.40
2018-04-22T04:50:00.827Z,17.40
2018-04-22T04:52:04.621Z,17.40
2018-04-22T04:54:09.427Z,17.50
2018-04-22T04:56:13.562Z,17.50
2018-04-22T04:58:17.853Z,17.60
2018-04-22T05:00:21.774Z,17.70
2018-04-22T05:02:25.914Z,17.80
2018-04-22T05:04:29.767Z,17.90
2018-04-22T05:06:33.567Z,18.10
2018-04-22T05:08:37.379Z,18.20
2018-04-22T05:10:41.176Z,18.30
2018-04-22T05:12:45.015Z,18.40
2018-04-22T05:14:52.076Z,18.50
2018-04-22T05:16:56.745Z,18.80
2018-04-22T05:19:00.514Z,18.80
2018-04-22T05:21:04.799Z,18.90
2018-04-22T05:23:08.657Z,19.00
2018-04-22T05:25:19.013Z,19.20
2018-04-22T05:27:24.362Z,19.30
2018-04-22T05:29:28.174Z,19.50
2018-04-22T05:31:32.215Z,19.70
2018-04-22T05:33:36.065Z,19.80
2018-04-22T05:35:39.843Z,20.00
2018-04-22T05:37:43.713Z,20.10
2018-04-22T05:39:48.279Z,20.30
2018-04-22T05:41:52.949Z,20.50
2018-04-22T05:43:58.882Z,20.50
2018-04-22T05:46:03.194Z,20.70
2018-04-22T05:48:07.019Z,20.80
2018-04-22T05:50:10.880Z,20.80
2018-04-22T05:52:14.988Z,20.90
2018-04-22T05:54:19.547Z,21.00
2018-04-22T05:56:23.341Z,21.00
2018-04-22T05:58:27.493Z,21.00
2018-04-22T06:00:31.325Z,21.20
2018-04-22T06:02:35.136Z,21.20
2018-04-22T06:04:40.014Z,21.40
2018-04-22T06:06:43.778Z,21.40
2018-04-22T06:08:47.587Z,21.50
2018-04-22T06:10:51.958Z,21.60
2018-04-22T06:12:55.714Z,21.70
2018-04-22T06:15:00.251Z,21.80
2018-04-22T06:17:04.500Z,21.80
2018-04-22T06:19:09.089Z,22.00
2018-04-22T06:21:13.052Z,21.90
2018-04-22T06:23:17.232Z,22.00
2018-04-22T06:25:21.083Z,22.10
2018-04-22T06:27:24.968Z,22.30
2018-04-22T06:29:28.824Z,22.40
2018-04-22T06:31:32.666Z,22.40
2018-04-22T06:33:36.512Z,22.50
2018-04-22T06:35:40.751Z,22.60
2018-04-22T06:37:44.691Z,22.70
2018-04-22T06:39:49.828Z,23.00
2018-04-22T06:41:56.172Z,23.10
2018-04-22T06:44:00.011Z,23.10
2018-04-22T06:46:03.988Z,23.10
2018-04-22T06:48:08.167Z,23.10
2018-04-22T06:50:11.940Z,23.00
2018-04-22T06:52:15.913Z,23.10
2018-04-22T06:54:20.534Z,23.20
2018-04-22T06:56:24.437Z,23.10
2018-04-22T06:58:29.071Z,23.50
2018-04-22T07:00:34.225Z,23.90
2018-04-22T07:02:38.093Z,23.90
2018-04-22T07:04:42.711Z,24.20
2018-04-22T07:06:46.979Z,24.20
2018-04-22T07:08:51.169Z,24.40
2018-04-22T07:10:55.677Z,24.40
2018-04-22T07:13:00.618Z,24.10
2018-04-22T07:15:06.288Z,23.90
2018-04-22T07:17:10.084Z,23.90
2018-04-22T07:19:13.894Z,23.90
2018-04-22T07:21:17.740Z,24.10
2018-04-22T07:23:21.648Z,24.30
2018-04-22T07:25:25.744Z,24.70
2018-04-22T07:27:29.584Z,25.30
2018-04-22T07:29:34.195Z,25.90
2018-04-22T07:31:39.163Z,25.80
2018-04-22T07:33:43.069Z,25.80
2018-04-22T07:35:47.049Z,25.70
2018-04-22T07:37:52.100Z,25.90
2018-04-22T07:39:56.008Z,25.80
2018-04-22T07:41:59.940Z,25.90
2018-04-22T07:44:06.512Z,26.00
2018-04-22T07:46:10.472Z,26.10
2018-04-22T07:48:14.407Z,26.20
2018-04-22T07:50:18.242Z,26.40
2018-04-22T07:52:22.735Z,26.40
2018-04-22T07:54:26.552Z,26.60
2018-04-22T07:56:30.407Z,27.00
2018-04-22T07:58:37.382Z,27.60
2018-04-22T08:00:41.985Z,27.50
2018-04-22T08:02:45.867Z,27.50
2018-04-22T08:04:49.743Z,27.50
2018-04-22T08:06:54.612Z,27.50
2018-04-22T08:08:58.499Z,27.70
2018-04-22T08:11:02.711Z,28.00
2018-04-22T08:13:06.584Z,28.30
2018-04-22T08:15:13.289Z,28.50
2018-04-22T08:17:17.426Z,28.70
2018-04-22T08:19:21.275Z,28.70
2018-04-22T08:21:25.852Z,29.10
2018-04-22T08:23:30.846Z,29.30
2018-04-22T08:25:34.692Z,29.30
2018-04-22T08:27:38.659Z,29.40
2018-04-22T08:29:42.454Z,29.50
2018-04-22T08:31:47.052Z,29.50
2018-04-22T08:33:51.534Z,29.60
2018-04-22T08:35:56.608Z,29.70
2018-04-22T08:38:00.504Z,29.80
2018-04-22T08:40:05.130Z,30.10
2018-04-22T08:42:12.143Z,30.40
2018-04-22T08:44:16.045Z,30.40
2018-04-22T08:46:19.932Z,30.60
2018-04-22T08:48:24.064Z,30.50
2018-04-22T08:50:27.984Z,30.60
2018-04-22T08:52:31.777Z,30.80
2018-04-22T08:54:36.385Z,31.00
2018-04-22T08:56:40.294Z,30.90
2018-04-22T08:58:44.188Z,31.10
2018-04-22T09:00:48.446Z,31.40
2018-04-22T09:02:52.297Z,31.50
2018-04-22T09:04:56.123Z,31.50
2018-04-22T09:07:00.351Z,31.70
2018-04-22T09:09:04.409Z,31.90
2018-04-22T09:11:09.030Z,32.10
2018-04-22T09:13:13.964Z,32.20
2018-04-22T09:15:18.564Z,32.10
2018-04-22T09:17:22.417Z,32.20
2018-04-22T09:19:29.019Z,32.20
2018-04-22T09:21:32.873Z,32.30
2018-04-22T09:23:36.793Z,32.30
2018-04-22T09:25:41.020Z,32.40
2018-04-22T09:27:44.853Z,32.50
2018-04-22T09:29:48.841Z,32.70
2018-04-22T09:31:53.989Z,32.80
2018-04-22T09:33:57.984Z,32.90
2018-04-22T09:36:02.039Z,33.00
2018-04-22T09:38:06.377Z,33.10
2018-04-22T09:40:10.237Z,33.00
2018-04-22T09:42:14.222Z,32.80
2018-04-22T09:44:18.418Z,32.50
2018-04-22T09:46:22.258Z,32.40
2018-04-22T09:48:26.110Z,32.50
2018-04-22T09:50:29.985Z,32.70
2018-04-22T09:52:34.759Z,32.50
2018-04-22T09:54:38.613Z,32.50
2018-04-22T09:56:43.537Z,31.70
2018-04-22T09:58:47.492Z,31.70
2018-04-22T10:00:55.486Z,31.70
2018-04-22T10:02:59.934Z,31.70
2018-04-22T10:05:08.395Z,31.50
2018-04-22T10:07:13.300Z,31.70
2018-04-22T10:09:17.452Z,31.70
2018-04-22T10:11:21.344Z,32.00
2018-04-22T10:13:25.323Z,32.10
2018-04-22T10:15:29.143Z,31.90
2018-04-22T10:17:33.001Z,31.90
2018-04-22T10:19:36.875Z,31.80
2018-04-22T10:21:41.022Z,31.80
2018-04-22T10:23:44.869Z,31.80
2018-04-22T10:25:49.531Z,31.90
2018-04-22T10:27:54.553Z,31.70
2018-04-22T10:29:58.348Z,31.60
2018-04-22T10:32:02.375Z,31.30
2018-04-22T10:34:06.480Z,31.00
2018-04-22T10:36:10.406Z,31.00
2018-04-22T10:38:14.453Z,31.00
2018-04-22T10:40:18.263Z,31.10
2018-04-22T10:42:22.127Z,31.40
2018-04-22T10:44:25.918Z,31.70
2018-04-22T10:46:30.355Z,31.80
2018-04-22T10:48:34.190Z,31.90
2018-04-22T10:50:38.457Z,32.10
2018-04-22T10:52:42.682Z,32.40
2018-04-22T10:54:46.544Z,32.40
2018-04-22T10:56:52.162Z,32.20
2018-04-22T10:58:56.502Z,32.20
2018-04-22T11:01:00.454Z,32.30
2018-04-22T11:03:04.464Z,32.30
2018-04-22T11:05:09.973Z,32.30
2018-04-22T11:07:13.876Z,32.40
2018-04-22T11:09:18.551Z,32.60
2018-04-22T11:11:23.228Z,32.80
2018-04-22T11:13:27.116Z,32.80
2018-04-22T11:15:31.729Z,33.30
2018-04-22T11:17:36.625Z,33.60
2018-04-22T11:19:40.495Z,33.50
2018-04-22T11:21:44.400Z,33.70
2018-04-22T11:23:48.667Z,33.90
2018-04-22T11:25:52.510Z,34.10
2018-04-22T11:27:56.461Z,33.90
2018-04-22T11:30:01.728Z,34.00
2018-04-22T11:32:05.673Z,34.00
2018-04-22T11:34:09.562Z,34.10
2018-04-22T11:36:13.532Z,34.20
2018-04-22T11:38:17.492Z,34.40
2018-04-22T11:40:21.454Z,34.60
2018-04-22T11:42:26.497Z,34.90
2018-04-22T11:44:30.388Z,34.90
2018-04-22T11:46:34.294Z,35.00
2018-04-22T11:48:39.700Z,35.00
2018-04-22T11:50:43.641Z,35.00
2018-04-22T11:52:47.440Z,35.00
2018-04-22T11:54:51.711Z,35.10
2018-04-22T11:56:56.432Z,35.20
2018-04-22T11:59:00.254Z,35.20
2018-04-22T12:01:04.126Z,35.20
2018-04-22T12:03:08.371Z,35.20
2018-04-22T12:05:12.302Z,35.20
2018-04-22T12:07:17.545Z,35.20
2018-04-22T12:09:21.379Z,35.00
2018-04-22T12:11:25.997Z,34.40
2018-04-22T12:13:30.221Z,34.50
2018-04-22T12:15:34.307Z,34.30
2018-04-22T12:17:38.967Z,34.10
2018-04-22T12:19:43.122Z,34.10
2018-04-22T12:21:46.960Z,34.20
2018-04-22T12:23:51.540Z,34.30
2018-04-22T12:25:55.382Z,34.30
2018-04-22T12:27:59.986Z,34.40
2018-04-22T12:30:04.856Z,34.40
2018-04-22T12:32:10.198Z,34.50
2018-04-22T12:34:14.091Z,34.40
2018-04-22T12:36:17.911Z,34.40
2018-04-22T12:38:29.079Z,34.40
2018-04-22T12:40:32.972Z,34.40
2018-04-22T12:42:36.992Z,34.50
2018-04-22T12:44:41.442Z,34.70
2018-04-22T12:46:45.280Z,34.90
2018-04-22T12:48:49.881Z,35.20
2018-04-22T12:50:53.710Z,35.10
2018-04-22T12:52:58.437Z,34.50
2018-04-22T12:55:03.964Z,34.10
2018-04-22T12:57:08.950Z,34.10
2018-04-22T12:59:12.876Z,34.00
2018-04-22T13:01:16.868Z,34.00
2018-04-22T13:03:21.254Z,34.10
2018-04-22T13:05:25.908Z,34.40
2018-04-22T13:07:29.784Z,34.30
2018-04-22T13:09:33.908Z,34.50
2018-04-22T13:11:37.718Z,34.50
2018-04-22T13:13:41.697Z,34.50
2018-04-22T13:15:46.661Z,34.50
2018-04-22T13:17:50.505Z,34.50
2018-04-22T13:19:54.336Z,34.60
2018-04-22T13:21:58.857Z,34.80
2018-04-22T13:24:03.564Z,34.90
2018-04-22T13:26:07.484Z,34.80
2018-04-22T13:28:14.429Z,34.80
2018-04-22T13:30:18.300Z,34.70
2018-04-22T13:32:22.295Z,34.70
2018-04-22T13:34:26.717Z,34.70
2018-04-22T13:36:30.525Z,34.70
2018-04-22T13:38:34.355Z,34.70
2018-04-22T13:40:39.491Z,34.80
2018-04-22T13:42:43.354Z,35.10
2018-04-22T13:44:47.578Z,35.20
2018-04-22T13:46:51.461Z,35.10
2018-04-22T13:48:56.406Z,34.50
2018-04-22T13:51:00.869Z,34.50
2018-04-22T13:53:05.045Z,34.40
2018-04-22T13:55:08.946Z,34.40
2018-04-22T13:57:12.802Z,34.60
2018-04-22T13:59:17.933Z,34.70
2018-04-22T14:01:21.807Z,34.80
2018-04-22T14:03:25.742Z,34.70
2018-04-22T14:05:29.835Z,34.50
2018-04-22T14:07:33.758Z,34.30
2018-04-22T14:09:37.638Z,34.20
2018-04-22T14:11:41.479Z,34.30
2018-04-22T14:13:45.402Z,34.40
2018-04-22T14:15:49.414Z,34.50
2018-04-22T14:17:53.607Z,34.50
2018-04-22T14:19:57.529Z,34.70
2018-04-22T14:22:02.942Z,34.90
2018-04-22T14:24:07.792Z,34.80
2018-04-22T14:26:12.478Z,35.60
2018-04-22T14:28:16.288Z,35.50
2018-04-22T14:30:21.477Z,35.80
2018-04-22T14:32:25.357Z,35.90
2018-04-22T14:34:29.152Z,35.70
2018-04-22T14:36:32.991Z,35.50
2018-04-22T14:38:36.998Z,35.30
2018-04-22T14:40:40.948Z,35.20
2018-04-22T14:42:44.782Z,35.10
2018-04-22T14:46:56.434Z,35.00
2018-04-22T14:49:07.024Z,35.00
2018-04-22T14:51:11.391Z,34.50
2018-04-22T14:53:15.540Z,34.40
2018-04-22T14:55:19.792Z,34.30
2018-04-22T14:57:24.507Z,34.00
2018-04-22T14:59:28.388Z,34.00
2018-04-22T15:01:32.272Z,34.00
2018-04-22T15:03:36.276Z,34.00
2018-04-22T15:05:40.098Z,34.20
2018-04-22T15:07:44.250Z,34.30
2018-04-22T15:09:49.182Z,34.20
2018-04-22T15:11:53.116Z,34.20
2018-04-22T15:13:57.355Z,34.20
2018-04-22T15:16:01.976Z,34.30
2018-04-22T15:18:05.784Z,34.40
2018-04-22T15:20:10.143Z,34.70
2018-04-22T15:22:14.806Z,35.00
2018-04-22T15:24:18.815Z,35.00
2018-04-22T15:26:25.103Z,35.30
2018-04-22T15:28:29.866Z,35.70
2018-04-22T15:30:34.442Z,36.10
2018-04-22T15:32:38.440Z,36.10
2018-04-22T15:34:42.249Z,36.40
2018-04-22T15:36:46.293Z,36.60
2018-04-22T15:38:52.822Z,36.60
2018-04-22T15:40:57.737Z,36.50
2018-04-22T15:43:01.544Z,36.60
2018-04-22T15:45:09.963Z,36.50
2018-04-22T15:47:13.826Z,36.50
2018-04-22T15:49:17.691Z,36.50
2018-04-22T15:51:21.907Z,36.40
2018-04-22T15:53:25.848Z,36.20
2018-04-22T15:55:30.559Z,35.90
2018-04-22T15:57:35.512Z,35.70
2018-04-22T15:59:39.294Z,35.70
2018-04-22T16:01:43.292Z,35.50
2018-04-22T16:03:47.389Z,35.20
2018-04-22T16:05:51.228Z,34.90
2018-04-22T16:07:55.935Z,34.60
2018-04-22T16:10:00.114Z,34.50
2018-04-22T16:12:04.622Z,34.30
2018-04-22T16:14:09.073Z,34.20
2018-04-22T16:16:13.257Z,33.90
2018-04-22T16:18:17.065Z,33.90
2018-04-22T16:20:20.934Z,33.80
2018-04-22T16:22:25.516Z,33.90
2018-04-22T16:24:29.458Z,33.90
2018-04-22T16:26:34.090Z,33.90
2018-04-22T16:28:38.241Z,33.90
2018-04-22T16:30:42.873Z,33.90
2018-04-22T16:32:46.765Z,33.90
2018-04-22T16:34:51.013Z,34.00
2018-04-22T16:36:54.891Z,34.10
2018-04-22T16:38:58.810Z,34.10
2018-04-22T16:41:02.923Z,34.20
2018-04-22T16:43:06.796Z,34.40
2018-04-22T16:45:14.851Z,34.50
2018-04-22T16:47:18.769Z,34.60
2018-04-22T16:49:22.763Z,34.50
2018-04-22T16:51:26.598Z,34.40
2018-04-22T16:53:34.236Z,34.30
2018-04-22T16:55:44.482Z,33.90
2018-04-22T16:57:48.374Z,33.50
2018-04-22T16:59:52.669Z,33.20
2018-04-22T17:01:56.732Z,33.10
2018-04-22T17:04:00.661Z,33.20
2018-04-22T17:06:04.974Z,33.30
2018-04-22T17:08:08.764Z,33.40
2018-04-22T17:10:13.807Z,33.30
2018-04-22T17:12:18.398Z,32.80
2018-04-22T17:14:22.389Z,32.80
2018-04-22T17:16:26.456Z,32.50
2018-04-22T17:18:32.792Z,32.10
2018-04-22T17:20:36.659Z,31.80
2018-04-22T17:22:40.632Z,31.50
2018-04-22T17:24:46.597Z,31.00
2018-04-22T17:26:50.482Z,31.00
2018-04-22T17:28:55.190Z,30.60
2018-04-22T17:30:59.515Z,30.60
2018-04-22T17:33:04.157Z,30.30
2018-04-22T17:35:09.100Z,30.30
2018-04-22T17:37:12.979Z,30.20
2018-04-22T17:39:18.556Z,29.90
2018-04-22T17:41:22.371Z,29.90
2018-04-22T17:43:26.475Z,29.70
2018-04-22T17:45:30.472Z,29.60
2018-04-22T17:47:34.444Z,29.40
2018-04-22T17:49:41.484Z,29.20
2018-04-22T17:51:45.351Z,29.10
2018-04-22T17:53:49.348Z,29.10
2018-04-22T17:55:53.649Z,28.90
2018-04-22T17:57:58.299Z,28.60
2018-04-22T18:00:02.330Z,28.50
2018-04-22T18:02:08.905Z,28.50
2018-04-22T18:04:13.350Z,28.40
2018-04-22T18:06:17.185Z,28.30
2018-04-22T18:08:21.770Z,28.10
2018-04-22T18:10:25.924Z,28.10
2018-04-22T18:12:29.912Z,28.00
2018-04-22T18:14:34.887Z,27.90
2018-04-22T18:16:38.740Z,27.80
2018-04-22T18:18:42.666Z,27.70
2018-04-22T18:20:47.663Z,27.60
2018-04-22T18:22:51.597Z,27.50
2018-04-22T18:24:56.347Z,27.40
2018-04-22T18:27:02.545Z,27.40
2018-04-22T18:29:06.341Z,27.30
2018-04-22T18:31:10.193Z,27.30
2018-04-22T18:33:14.837Z,27.20
2018-04-22T18:35:18.813Z,27.20
2018-04-22T18:37:23.457Z,27.10
2018-04-22T18:39:28.375Z,27.10
2018-04-22T18:41:32.259Z,27.00
2018-04-22T18:43:36.133Z,27.00
2018-04-22T18:45:40.292Z,27.00
2018-04-22T18:47:44.245Z,26.90
2018-04-22T18:49:48.911Z,26.80
2018-04-22T18:51:53.078Z,26.80
2018-04-22T18:53:57.004Z,26.70
2018-04-22T18:56:00.913Z,26.70
2018-04-22T18:58:04.814Z,26.70
2018-04-22T19:00:08.992Z,26.70
2018-04-22T19:02:12.847Z,26.80
2018-04-22T19:04:16.985Z,26.80
2018-04-22T19:06:21.554Z,26.60
2018-04-22T19:08:25.521Z,26.80
2018-04-22T19:10:29.821Z,26.70
2018-04-22T19:12:34.517Z,26.70
2018-04-22T19:14:38.469Z,26.70
2018-04-22T19:16:42.606Z,26.70
2018-04-22T19:18:46.520Z,26.60
2018-04-22T19:20:50.446Z,26.60
2018-04-22T19:22:55.219Z,26.50
2018-04-22T19:24:59.117Z,26.50
2018-04-22T19:27:02.940Z,26.40
2018-04-22T19:29:06.781Z,26.20
2018-04-22T19:31:10.595Z,26.40
2018-04-22T19:33:14.401Z,26.40
2018-04-22T19:35:19.601Z,26.40
2018-04-22T19:37:23.802Z,26.40
2018-04-22T19:39:27.646Z,26.40
2018-04-22T19:41:31.781Z,26.20
2018-04-22T19:43:35.673Z,26.40
2018-04-22T19:45:39.583Z,26.40
2018-04-22T19:47:43.551Z,26.40
2018-04-22T19:49:47.394Z,26.40
2018-04-22T19:51:51.260Z,26.40
2018-04-22T19:53:55.228Z,26.40
2018-04-22T19:55:59.073Z,26.40
2018-04-22T19:58:02.878Z,26.40
2018-04-22T20:00:10.378Z,26.50
2018-04-22T20:02:14.278Z,26.40
2018-04-22T20:04:18.887Z,26.50
2018-04-22T20:06:23.304Z,26.40
2018-04-22T20:08:27.175Z,26.40
2018-04-22T20:10:31.760Z,26.30
2018-04-22T20:12:36.688Z,26.40
2018-04-22T20:14:40.583Z,26.40
2018-04-22T20:16:44.433Z,26.50
2018-04-22T20:18:48.341Z,26.50
2018-04-22T20:20:52.239Z,26.60
2018-04-22T20:22:56.828Z,26.60
2018-04-22T20:25:00.985Z,26.50
2018-04-22T20:27:04.978Z,26.60
2018-04-22T20:29:09.658Z,26.60
2018-04-22T20:31:13.886Z,26.60
2018-04-22T20:33:18.660Z,26.70
2018-04-22T20:35:22.493Z,26.60
2018-04-22T20:37:26.783Z,26.60
2018-04-22T20:39:30.684Z,26.60
2018-04-22T20:41:35.254Z,26.50
2018-04-22T20:43:39.151Z,26.50
2018-04-22T20:45:43.060Z,26.50
2018-04-22T20:47:46.885Z,26.40
2018-04-22T20:49:53.561Z,26.30
2018-04-22T20:51:57.435Z,26.30
2018-04-22T20:54:01.497Z,26.20
2018-04-22T20:56:05.985Z,26.20
2018-04-22T20:58:10.746Z,26.00
2018-04-22T21:00:15.662Z,26.00
2018-04-22T21:02:19.941Z,25.90
2018-04-22T21:04:23.743Z,25.80
2018-04-22T21:06:27.636Z,25.70
2018-04-22T21:08:31.569Z,25.80
2018-04-22T21:10:35.535Z,25.60
2018-04-22T21:12:39.385Z,25.40
2018-04-22T21:14:44.619Z,25.40
2018-04-22T21:16:48.547Z,25.30
2018-04-22T21:18:53.224Z,25.20
2018-04-22T21:20:57.343Z,25.20
2018-04-22T21:23:01.176Z,25.20
2018-04-22T21:25:05.053Z,25.10
2018-04-22T21:27:09.574Z,25.10
2018-04-22T21:29:13.453Z,25.00
2018-04-22T21:31:17.295Z,24.90
2018-04-22T21:33:21.122Z,24.90
2018-04-22T21:35:25.817Z,24.70
2018-04-22T21:37:29.666Z,24.70
2018-04-22T21:39:34.412Z,24.70
2018-04-22T21:41:38.275Z,24.60
2018-04-22T21:43:42.855Z,24.50
2018-04-22T21:45:47.096Z,24.40
2018-04-22T21:47:51.011Z,24.40
2018-04-22T21:49:54.867Z,24.30
2018-04-22T21:51:59.037Z,24.30
2018-04-22T21:54:02.986Z,24.20
2018-04-22T21:56:07.060Z,24.20
2018-04-22T21:58:11.354Z,24.20
2018-04-22T22:00:17.504Z,24.10
2018-04-22T22:02:21.450Z,24.00
2018-04-22T22:04:26.629Z,24.00
2018-04-22T22:06:30.452Z,24.00
2018-04-22T22:08:34.243Z,24.00
2018-04-22T22:10:38.505Z,23.90
2018-04-22T22:12:43.112Z,23.90
2018-04-22T22:14:46.998Z,23.90
2018-04-22T22:16:51.073Z,23.90
2018-04-22T22:18:54.949Z,23.90
2018-04-22T22:20:59.134Z,23.80
2018-04-22T22:23:03.308Z,23.80
2018-04-22T22:25:07.181Z,23.80
2018-04-22T22:27:11.027Z,23.80
2018-04-22T22:29:14.800Z,23.80
2018-04-22T22:31:18.628Z,23.70
2018-04-22T22:33:22.405Z,23.70
2018-04-22T22:35:26.671Z,23.70
2018-04-22T22:37:30.430Z,23.70
2018-04-22T22:39:35.363Z,23.60
2018-04-22T22:41:39.617Z,23.50
2018-04-22T22:43:43.518Z,23.50
2018-04-22T22:45:47.393Z,23.50
2018-04-22T22:47:51.515Z,23.40
2018-04-22T22:49:55.343Z,23.40
2018-04-22T22:51:59.942Z,23.20
2018-04-22T22:54:03.782Z,23.30
2018-04-22T22:56:08.424Z,23.10
2018-04-22T22:58:12.180Z,23.10
2018-04-22T23:00:17.199Z,23.10
2018-04-22T23:02:21.038Z,22.90
2018-04-22T23:04:25.611Z,22.90
2018-04-22T23:06:29.712Z,22.90
2018-04-22T23:08:33.629Z,22.90
2018-04-22T23:10:37.513Z,22.90
2018-04-22T23:12:41.676Z,22.80
2018-04-22T23:14:45.558Z,22.80
2018-04-22T23:16:49.423Z,22.70
2018-04-22T23:18:53.212Z,22.70
2018-04-22T23:20:57.831Z,22.60
2018-04-22T23:23:01.614Z,22.60
2018-04-22T23:25:05.417Z,22.60
2018-04-22T23:27:09.136Z,22.50
2018-04-22T23:29:12.959Z,22.40
2018-04-22T23:31:18.038Z,22.40
2018-04-22T23:33:22.002Z,22.30
2018-04-22T23:35:25.818Z,22.30
2018-04-22T23:37:30.160Z,22.30
2018-04-22T23:39:34.007Z,22.20
2018-04-22T23:41:38.464Z,22.10
2018-04-22T23:43:42.734Z,22.00
2018-04-22T23:45:46.526Z,22.00
2018-04-22T23:47:50.296Z,21.90
2018-04-22T23:49:54.376Z,21.80
2018-04-22T23:51:58.137Z,21.80
2018-04-22T23:54:01.995Z,21.70
2018-04-22T23:56:06.417Z,21.60
2018-04-22T23:58:10.294Z,21.60
